Time;durP1;ratioP1;P1;durP2;ratioP2;P2;SDS_P1;SDS_P2;PMS_P1;PMS_P2;Temp;Humidity;BMP_temperature;BMP_pressure;BME280_temperature;BME280_humidity;BME280_pressure;Samples;Min_cycle;Max_cycle;Signal;HPM_P1;HPM_P2
2024/03/11 00:01:15;;;;;;;22.17;13.33;;;10.60;99.90;;;;;;5052489;28;20167;-68
2024/03/11 00:03:40;;;;;;;22.73;13.30;;;10.60;99.90;;;;;;5052114;28;20174;-68
2024/03/11 00:06:07;;;;;;;22.20;14.70;;;10.60;99.90;;;;;;5052652;28;20772;-68
2024/03/11 00:08:34;;;;;;;23.67;13.63;;;10.60;99.90;;;;;;5047664;28;20198;-68
2024/03/11 00:11:04;;;;;;;22.57;13.33;;;10.60;99.90;;;;;;5052417;28;20488;-68
2024/03/11 00:13:33;;;;;;;24.20;13.77;;;10.60;99.90;;;;;;5051896;28;20792;-68
2024/03/11 00:16:02;;;;;;;17.40;12.93;;;10.60;99.90;;;;;;5052460;28;20465;-68
2024/03/11 00:18:28;;;;;;;23.53;14.97;;;10.60;99.90;;;;;;5052387;28;20980;-68
2024/03/11 00:20:55;;;;;;;24.03;14.10;;;10.50;99.90;;;;;;5052159;28;20397;-68
2024/03/11 00:23:21;;;;;;;22.77;15.17;;;10.50;99.90;;;;;;5052287;28;20434;-68
2024/03/11 00:25:46;;;;;;;20.47;13.63;;;10.50;99.90;;;;;;5052436;28;20416;-68
2024/03/11 00:28:12;;;;;;;27.47;14.80;;;10.50;99.90;;;;;;5050787;28;20195;-68
2024/03/11 00:30:37;;;;;;;25.43;15.50;;;10.50;99.90;;;;;;5052389;28;20253;-68
2024/03/11 00:33:03;;;;;;;26.30;16.23;;;10.50;99.90;;;;;;5052129;28;20246;-68
2024/03/11 00:35:29;;;;;;;25.13;16.17;;;10.50;99.90;;;;;;5049927;28;20163;-68
2024/03/11 00:37:55;;;;;;;25.00;16.60;;;10.40;99.90;;;;;;5049858;28;20245;-68
2024/03/11 00:40:23;;;;;;;22.73;15.10;;;10.40;99.90;;;;;;5051948;28;20833;-68
2024/03/11 00:42:49;;;;;;;29.47;17.00;;;10.40;99.90;;;;;;5051616;28;20439;-68
2024/03/11 00:45:15;;;;;;;24.80;15.13;;;10.30;99.90;;;;;;5051741;28;20402;-68
2024/03/11 00:47:41;;;;;;;24.43;15.87;;;10.30;99.90;;;;;;5051861;28;20482;-68
2024/03/11 00:50:12;;;;;;;27.47;15.50;;;10.20;99.90;;;;;;5052295;28;20457;-68
2024/03/11 00:52:48;;;;;;;37.17;18.30;;;10.20;99.90;;;;;;5051872;28;20425;-68
2024/03/11 00:55:13;;;;;;;21.37;14.67;;;10.20;99.90;;;;;;5050735;28;20397;-68
2024/03/11 00:57:41;;;;;;;26.60;17.37;;;10.10;99.90;;;;;;5051418;28;21077;-68
2024/03/11 01:00:11;;;;;;;25.20;16.10;;;10.10;99.90;;;;;;5051825;28;20198;-68
2024/03/11 01:02:37;;;;;;;28.20;17.07;;;10.10;99.90;;;;;;5050461;28;20946;-68
2024/03/11 01:05:03;;;;;;;26.20;16.90;;;10.10;99.90;;;;;;5051432;28;20412;-68
2024/03/11 01:07:29;;;;;;;31.97;17.20;;;10.00;99.90;;;;;;5045274;28;20509;-68
2024/03/11 01:09:55;;;;;;;23.20;15.90;;;10.00;99.90;;;;;;5051342;28;20602;-68
2024/03/11 01:12:25;;;;;;;29.37;18.80;;;10.00;99.90;;;;;;5051601;28;20900;-68
2024/03/11 01:14:51;;;;;;;28.97;18.23;;;10.00;99.90;;;;;;5050253;28;20633;-68
2024/03/11 01:17:17;;;;;;;31.07;17.43;;;9.90;99.90;;;;;;5051566;28;20920;-68
2024/03/11 01:19:44;;;;;;;25.87;17.97;;;9.90;99.90;;;;;;5051425;28;20413;-68
2024/03/11 01:22:12;;;;;;;28.97;16.13;;;9.90;99.90;;;;;;5049303;28;20449;-68
2024/03/11 01:24:39;;;;;;;26.07;17.90;;;9.90;99.90;;;;;;5048426;28;20406;-68
2024/03/11 01:27:10;;;;;;;27.30;18.13;;;9.90;99.90;;;;;;5051407;28;20738;-68
2024/03/11 01:29:39;;;;;;;29.03;19.70;;;9.90;99.90;;;;;;5050121;28;20472;-68
2024/03/11 01:32:06;;;;;;;30.07;18.70;;;9.90;99.90;;;;;;5050197;28;20420;-68
2024/03/11 01:34:33;;;;;;;28.80;17.43;;;9.90;99.90;;;;;;5049781;28;20474;-68
2024/03/11 01:37:00;;;;;;;29.17;19.30;;;9.80;99.90;;;;;;5047202;28;20496;-69
2024/03/11 01:39:42;;;;;;;28.43;17.83;;;9.80;99.90;;;;;;5051183;28;20428;-69
2024/03/11 01:42:17;;;;;;;37.43;20.40;;;9.80;99.90;;;;;;5031466;28;20421;-68
2024/03/11 01:44:44;;;;;;;32.37;20.67;;;9.80;99.90;;;;;;5031260;28;20467;-69
2024/03/11 01:47:12;;;;;;;32.90;21.00;;;9.80;99.90;;;;;;5031278;28;20413;-68
2024/03/11 01:49:39;;;;;;;30.63;19.27;;;9.80;99.90;;;;;;5031330;28;20511;-69
2024/03/11 01:52:07;;;;;;;31.80;18.93;;;9.80;99.90;;;;;;5031113;28;20969;-69
2024/03/11 01:54:36;;;;;;;27.33;18.00;;;9.80;99.90;;;;;;5031168;28;20410;-69
2024/03/11 01:57:03;;;;;;;32.17;20.10;;;9.80;99.90;;;;;;5031322;28;20761;-68
2024/03/11 01:59:34;;;;;;;29.63;20.07;;;9.80;99.90;;;;;;5031315;28;20488;-69
2024/03/11 02:02:07;;;;;;;32.87;21.47;;;9.80;99.90;;;;;;5030994;28;20405;-69
2024/03/11 02:04:33;;;;;;;34.43;20.47;;;9.80;99.90;;;;;;5030858;28;20406;-69
2024/03/11 02:06:59;;;;;;;28.90;19.80;;;9.80;99.90;;;;;;5035473;28;20432;-69
2024/03/11 02:09:25;;;;;;;32.13;21.37;;;9.80;99.90;;;;;;5049447;28;20850;-68
2024/03/11 02:11:51;;;;;;;32.93;20.50;;;9.80;99.90;;;;;;5055197;28;20187;-69
2024/03/11 02:14:16;;;;;;;33.87;20.17;;;9.80;99.90;;;;;;5054473;28;20172;-69
2024/03/11 02:16:42;;;;;;;30.10;21.70;;;9.80;99.90;;;;;;5054615;28;20178;-68
2024/03/11 02:19:12;;;;;;;25.00;17.47;;;9.80;99.90;;;;;;5054672;28;20579;-68
2024/03/11 02:21:47;;;;;;;29.43;18.77;;;9.80;99.90;;;;;;5054661;28;20166;-69
2024/03/11 02:24:16;;;;;;;23.20;16.73;;;9.80;99.90;;;;;;5054341;28;20447;-69
2024/03/11 02:26:45;;;;;;;28.63;17.37;;;9.80;99.90;;;;;;5054535;28;20879;-69
2024/03/11 02:29:17;;;;;;;27.20;18.40;;;9.80;99.90;;;;;;5054162;28;20518;-69
2024/03/11 02:31:47;;;;;;;25.40;17.13;;;9.90;99.90;;;;;;5054364;28;20525;-69
2024/03/11 02:34:13;;;;;;;25.77;17.23;;;9.90;99.90;;;;;;5054102;28;20440;-68
2024/03/11 02:36:46;;;;;;;27.93;20.10;;;9.90;99.90;;;;;;5050340;28;20422;-68
2024/03/11 02:39:16;;;;;;;25.43;17.90;;;9.90;99.90;;;;;;5054092;28;20471;-68
2024/03/11 02:41:45;;;;;;;32.03;17.87;;;9.90;99.90;;;;;;5054218;28;20417;-68
2024/03/11 02:44:12;;;;;;;31.23;19.50;;;9.90;99.90;;;;;;5053754;28;20493;-68
2024/03/11 02:46:38;;;;;;;38.30;19.47;;;9.90;99.90;;;;;;5054103;28;20838;-68
2024/03/11 02:49:04;;;;;;;29.80;19.67;;;9.90;99.90;;;;;;5052702;28;20449;-68
2024/03/11 02:51:32;;;;;;;34.97;19.17;;;9.90;99.90;;;;;;5053944;28;20417;-69
2024/03/11 02:53:58;;;;;;;34.23;20.77;;;9.90;99.90;;;;;;5052453;28;20546;-68
2024/03/11 02:56:23;;;;;;;33.70;21.93;;;9.90;99.90;;;;;;5054134;28;20397;-69
2024/03/11 02:58:54;;;;;;;26.20;20.23;;;9.90;99.90;;;;;;5053860;28;20500;-69
2024/03/11 03:01:19;;;;;;;35.73;21.20;;;10.00;99.90;;;;;;5054125;28;20167;-69
2024/03/11 03:03:47;;;;;;;36.57;20.13;;;10.00;99.90;;;;;;5053597;28;20919;-69
2024/03/11 03:06:16;;;;;;;35.00;20.57;;;10.10;99.90;;;;;;5053764;28;20572;-69
2024/03/11 03:08:42;;;;;;;30.20;18.50;;;10.10;99.90;;;;;;5049553;28;20472;-69
2024/03/11 03:11:08;;;;;;;27.37;17.27;;;10.10;99.90;;;;;;5053219;28;20780;-69
2024/03/11 03:13:33;;;;;;;25.77;17.67;;;10.10;99.90;;;;;;5053198;28;20409;-69
2024/03/11 03:15:59;;;;;;;28.20;18.67;;;10.10;99.90;;;;;;5053971;28;20184;-68
2024/03/11 03:18:24;;;;;;;27.90;17.70;;;10.10;99.90;;;;;;5053089;28;20187;-68
2024/03/11 03:20:50;;;;;;;25.10;16.43;;;10.10;99.90;;;;;;5052226;28;20189;-68
2024/03/11 03:23:17;;;;;;;24.97;17.20;;;10.20;99.90;;;;;;5053408;28;20664;-68
2024/03/11 03:25:43;;;;;;;21.27;16.73;;;10.20;99.90;;;;;;5053247;28;20155;-68
2024/03/11 03:28:08;;;;;;;22.87;15.10;;;10.20;99.90;;;;;;5053484;28;20923;-68
2024/03/11 03:30:35;;;;;;;25.13;16.20;;;10.20;99.90;;;;;;5053332;28;20577;-68
2024/03/11 03:33:01;;;;;;;22.80;15.60;;;10.20;99.90;;;;;;5053103;28;20163;-68
2024/03/11 03:35:26;;;;;;;21.93;15.57;;;10.20;99.90;;;;;;5052294;28;20416;-68
2024/03/11 03:37:53;;;;;;;26.27;15.90;;;10.20;99.90;;;;;;5047264;28;20448;-68
2024/03/11 03:40:18;;;;;;;23.97;15.40;;;10.20;99.90;;;;;;5053051;28;20167;-68
2024/03/11 03:42:48;;;;;;;27.60;17.17;;;10.20;99.90;;;;;;5053253;28;20402;-68
2024/03/11 03:45:15;;;;;;;33.03;20.47;;;10.20;99.90;;;;;;5051766;28;20174;-69
2024/03/11 03:47:41;;;;;;;25.60;16.57;;;10.20;99.90;;;;;;5053005;28;20525;-69
2024/03/11 03:50:10;;;;;;;26.30;17.53;;;10.20;99.90;;;;;;5052832;28;20449;-69
2024/03/11 03:52:41;;;;;;;23.20;16.17;;;10.20;99.90;;;;;;5052640;28;20914;-69
2024/03/11 03:55:08;;;;;;;30.20;19.40;;;10.20;99.90;;;;;;5052920;28;21030;-69
2024/03/11 03:57:33;;;;;;;22.07;17.00;;;10.20;99.90;;;;;;5052789;28;20867;-69
2024/03/11 04:00:00;;;;;;;29.67;18.70;;;10.20;99.90;;;;;;5052814;28;20436;-69
2024/03/11 04:02:26;;;;;;;33.03;19.57;;;10.10;99.90;;;;;;5052536;28;20542;-69
2024/03/11 04:04:52;;;;;;;29.97;21.00;;;10.10;99.90;;;;;;5052316;28;20397;-69
2024/03/11 04:07:18;;;;;;;33.07;20.13;;;10.10;99.90;;;;;;5050362;28;20832;-69
2024/03/11 04:09:44;;;;;;;30.17;22.17;;;10.10;99.90;;;;;;5050174;28;20566;-69
2024/03/11 04:12:09;;;;;;;31.50;20.63;;;10.00;99.90;;;;;;5052438;28;20418;-69
2024/03/11 04:14:37;;;;;;;34.80;21.00;;;10.00;99.90;;;;;;5052266;28;20638;-68
2024/03/11 04:17:06;;;;;;;33.53;22.13;;;10.00;99.90;;;;;;5052331;28;20166;-68
2024/03/11 04:19:31;;;;;;;31.47;20.90;;;9.90;99.90;;;;;;5052490;28;20426;-68
2024/03/11 04:21:57;;;;;;;33.30;21.50;;;9.90;99.90;;;;;;5052480;28;20534;-69
2024/03/11 04:24:23;;;;;;;36.70;19.37;;;9.90;99.90;;;;;;5050658;28;20177;-69
2024/03/11 04:26:50;;;;;;;35.87;22.20;;;9.90;99.90;;;;;;5052315;28;20175;-68
2024/03/11 04:29:16;;;;;;;40.50;19.50;;;9.90;99.90;;;;;;5051446;28;20374;-69
2024/03/11 04:31:42;;;;;;;30.30;18.77;;;9.80;99.90;;;;;;5052171;28;20881;-69
2024/03/11 04:34:08;;;;;;;34.47;22.03;;;9.80;99.90;;;;;;5050956;28;20421;-68
2024/03/11 04:36:35;;;;;;;33.67;20.73;;;9.80;99.90;;;;;;5045970;28;20175;-69
2024/03/11 04:39:04;;;;;;;30.40;20.67;;;9.80;99.90;;;;;;5052120;28;20445;-68
2024/03/11 04:41:31;;;;;;;32.17;21.13;;;9.80;99.90;;;;;;5052043;28;20500;-68
2024/03/11 04:43:57;;;;;;;33.53;21.10;;;9.70;99.90;;;;;;5051627;28;20415;-68
2024/03/11 04:46:23;;;;;;;36.07;24.60;;;9.80;99.90;;;;;;5051893;28;20405;-69
2024/03/11 04:48:49;;;;;;;32.93;22.03;;;9.70;99.90;;;;;;5051674;28;20544;-69
2024/03/11 04:51:14;;;;;;;35.67;22.00;;;9.70;99.90;;;;;;5050555;28;20163;-69
2024/03/11 04:53:40;;;;;;;37.00;25.77;;;9.70;99.90;;;;;;5051713;28;20179;-69
2024/03/11 04:56:06;;;;;;;33.90;24.37;;;9.60;99.90;;;;;;5052051;28;20198;-68
2024/03/11 04:58:32;;;;;;;35.53;24.33;;;9.60;99.90;;;;;;5051795;28;20191;-69
2024/03/11 05:00:58;;;;;;;37.17;25.23;;;9.60;99.90;;;;;;5051495;28;20401;-69
2024/03/11 05:03:24;;;;;;;43.20;25.70;;;9.60;99.90;;;;;;5051718;28;20296;-69
2024/03/11 05:05:49;;;;;;;43.90;27.10;;;9.60;99.90;;;;;;5051835;28;20191;-69
2024/03/11 05:08:15;;;;;;;42.50;29.00;;;9.60;99.90;;;;;;5045183;28;20477;-68
2024/03/11 05:10:41;;;;;;;39.20;24.97;;;9.50;99.90;;;;;;5051303;28;20784;-69
2024/03/11 05:13:07;;;;;;;35.30;24.83;;;9.50;99.90;;;;;;5051377;28;20409;-69
2024/03/11 05:15:33;;;;;;;47.87;26.63;;;9.50;99.90;;;;;;5051264;28;20258;-69
2024/03/11 05:17:59;;;;;;;40.77;25.63;;;9.50;99.90;;;;;;5051511;28;20999;-69
2024/03/11 05:20:25;;;;;;;32.87;23.20;;;9.50;99.90;;;;;;5051543;28;20163;-68
2024/03/11 05:22:51;;;;;;;40.43;26.90;;;9.50;99.90;;;;;;5046095;28;20524;-69
2024/03/11 05:25:19;;;;;;;46.73;28.83;;;9.50;99.90;;;;;;5051227;28;20171;-69
2024/03/11 05:27:46;;;;;;;45.60;27.70;;;9.50;99.90;;;;;;5051450;28;20678;-69
2024/03/11 05:30:12;;;;;;;41.37;27.47;;;9.40;99.90;;;;;;5051480;28;20820;-68
2024/03/11 05:32:38;;;;;;;43.43;27.30;;;9.40;99.90;;;;;;5051550;28;20409;-68
2024/03/11 05:35:04;;;;;;;41.80;26.67;;;9.30;99.90;;;;;;5050516;28;20420;-69
2024/03/11 05:37:31;;;;;;;41.73;25.47;;;9.30;99.90;;;;;;5049478;28;20280;-69
2024/03/11 05:39:59;;;;;;;35.53;25.67;;;9.30;99.90;;;;;;5050066;28;20966;-69
2024/03/11 05:42:25;;;;;;;41.53;26.23;;;9.30;99.90;;;;;;5055307;28;20444;-69
2024/03/11 05:44:50;;;;;;;41.47;25.30;;;9.30;99.90;;;;;;5054962;28;20498;-69
2024/03/11 05:47:16;;;;;;;34.83;22.90;;;9.30;99.90;;;;;;5055019;28;20174;-69
2024/03/11 05:49:42;;;;;;;39.03;25.67;;;9.30;99.90;;;;;;5055071;28;20229;-68
2024/03/11 05:52:10;;;;;;;49.03;27.43;;;9.30;99.90;;;;;;5055015;28;20293;-68
2024/03/11 05:54:38;;;;;;;50.60;26.67;;;9.30;99.90;;;;;;5054812;28;20437;-68
2024/03/11 05:57:04;;;;;;;39.60;25.10;;;9.30;99.90;;;;;;5054866;28;20823;-68
2024/03/11 05:59:31;;;;;;;33.83;23.30;;;9.30;99.90;;;;;;5055066;28;20409;-69
2024/03/11 06:01:57;;;;;;;41.43;25.10;;;9.40;99.90;;;;;;5054712;28;20912;-68
2024/03/11 06:04:25;;;;;;;43.80;27.03;;;9.40;99.90;;;;;;5055139;28;20432;-68
2024/03/11 06:06:51;;;;;;;42.47;25.97;;;9.40;99.90;;;;;;5053708;28;20417;-68
2024/03/11 06:09:17;;;;;;;39.87;23.97;;;9.50;99.90;;;;;;5052517;28;20453;-68
2024/03/11 06:11:47;;;;;;;43.80;26.20;;;9.50;99.90;;;;;;5053350;28;20424;-68
2024/03/11 06:14:13;;;;;;;43.33;26.17;;;9.50;99.90;;;;;;5046406;28;20661;-68
2024/03/11 06:16:39;;;;;;;37.17;25.80;;;9.50;99.90;;;;;;5054731;28;20413;-68
2024/03/11 06:19:07;;;;;;;50.00;25.60;;;9.50;99.90;;;;;;5054398;28;20257;-68
2024/03/11 06:21:33;;;;;;;47.57;27.33;;;9.40;99.90;;;;;;5053229;28;20467;-68
2024/03/11 06:24:00;;;;;;;40.00;24.30;;;9.40;99.90;;;;;;5054427;28;20409;-68
2024/03/11 06:26:27;;;;;;;41.57;27.20;;;9.30;99.90;;;;;;5054496;28;20406;-68
2024/03/11 06:28:52;;;;;;;37.43;24.20;;;9.30;99.90;;;;;;5054382;28;20488;-68
2024/03/11 06:31:20;;;;;;;35.07;22.97;;;9.20;99.90;;;;;;5049380;28;20452;-68
2024/03/11 06:33:46;;;;;;;45.07;26.57;;;9.30;99.90;;;;;;5054048;28;20175;-68
2024/03/11 06:36:16;;;;;;;43.43;25.83;;;9.30;99.90;;;;;;5051096;28;20520;-68
2024/03/11 06:38:44;;;;;;;38.97;23.93;;;9.20;99.90;;;;;;5049994;28;20429;-68
2024/03/11 06:41:10;;;;;;;36.87;22.87;;;9.20;99.90;;;;;;5051870;28;20500;-68
2024/03/11 06:43:35;;;;;;;39.03;23.27;;;9.20;99.90;;;;;;5053816;28;20485;-68
2024/03/11 06:46:01;;;;;;;36.60;22.77;;;9.10;99.90;;;;;;5054175;28;20158;-68
2024/03/11 06:48:26;;;;;;;34.33;20.77;;;9.00;99.90;;;;;;5048218;28;20199;-68
2024/03/11 06:50:52;;;;;;;36.50;19.90;;;9.00;99.90;;;;;;5044998;28;20661;-68
2024/03/11 06:53:17;;;;;;;34.00;19.10;;;9.00;99.90;;;;;;5052971;28;20187;-68
2024/03/11 06:55:43;;;;;;;37.03;20.93;;;9.00;99.90;;;;;;5053754;28;20171;-68
2024/03/11 06:58:09;;;;;;;24.83;15.50;;;8.90;99.90;;;;;;5053767;28;20183;-68
2024/03/11 07:00:34;;;;;;;29.10;16.07;;;8.80;99.90;;;;;;5053943;28;20689;-68
2024/03/11 07:03:00;;;;;;;15.80;11.57;;;8.70;99.90;;;;;;5053844;28;20166;-68
2024/03/11 07:05:28;;;;;;;22.47;11.40;;;8.80;99.90;;;;;;5053635;28;20171;-68
2024/03/11 07:07:55;;;;;;;15.43;9.20;;;8.70;99.90;;;;;;5053592;28;20557;-68
2024/03/11 07:10:21;;;;;;;13.30;7.43;;;8.80;99.90;;;;;;5053550;28;20452;-68
2024/03/11 07:12:47;;;;;;;9.60;6.50;;;8.80;99.90;;;;;;5053586;28;20451;-68
2024/03/11 07:15:13;;;;;;;8.60;6.00;;;8.70;99.90;;;;;;5053312;28;20431;-68
2024/03/11 07:17:39;;;;;;;14.83;6.40;;;8.80;99.90;;;;;;5053435;28;20194;-68
2024/03/11 07:20:07;;;;;;;6.60;5.20;;;8.80;99.90;;;;;;5053523;28;20414;-68
2024/03/11 07:22:38;;;;;;;7.90;4.63;;;8.80;99.90;;;;;;5053443;28;20169;-68
2024/03/11 07:25:09;;;;;;;6.40;3.67;;;8.90;99.90;;;;;;5053205;28;20463;-68
2024/03/11 07:27:34;;;;;;;5.00;3.60;;;8.80;99.90;;;;;;5052027;28;20430;-68
2024/03/11 07:30:00;;;;;;;6.20;3.27;;;8.90;99.90;;;;;;5052936;28;20444;-69
2024/03/11 07:32:26;;;;;;;4.10;3.07;;;8.80;99.90;;;;;;5053079;28;20192;-68
2024/03/11 07:34:52;;;;;;;3.50;2.60;;;8.90;99.90;;;;;;5052843;28;20181;-68
2024/03/11 07:37:17;;;;;;;3.00;2.30;;;8.90;99.90;;;;;;5046730;28;20512;-68
2024/03/11 07:39:44;;;;;;;3.93;2.60;;;9.00;99.90;;;;;;5051463;28;20182;-68
2024/03/11 07:42:10;;;;;;;2.57;2.33;;;9.10;99.90;;;;;;5052763;28;20635;-68
2024/03/11 07:44:35;;;;;;;3.30;2.30;;;9.00;99.90;;;;;;5052583;28;20424;-68
2024/03/11 07:47:02;;;;;;;4.20;2.50;;;9.00;99.90;;;;;;5052701;28;20716;-68
2024/03/11 07:49:29;;;;;;;3.93;2.67;;;9.00;99.90;;;;;;5052673;28;20484;-68
2024/03/11 07:51:59;;;;;;;3.77;2.50;;;9.00;99.90;;;;;;5052761;28;20183;-68
2024/03/11 07:54:25;;;;;;;5.00;2.70;;;8.90;99.90;;;;;;5052615;28;20488;-69
2024/03/11 07:56:50;;;;;;;5.30;2.57;;;8.90;99.90;;;;;;5052952;28;20503;-68
2024/03/11 07:59:16;;;;;;;5.93;2.37;;;8.90;99.90;;;;;;5052688;28;20592;-68
2024/03/11 08:01:42;;;;;;;2.90;2.33;;;9.00;99.90;;;;;;5052885;28;20166;-68
2024/03/11 08:04:08;;;;;;;4.70;2.97;;;8.90;99.90;;;;;;5044585;28;20523;-68
2024/03/11 08:06:35;;;;;;;3.23;2.30;;;8.90;99.90;;;;;;5048767;28;20170;-68
2024/03/11 08:09:00;;;;;;;3.23;2.00;;;8.90;99.90;;;;;;5052274;28;20503;-68
2024/03/11 08:11:26;;;;;;;2.50;1.40;;;8.80;99.90;;;;;;5052289;28;20405;-69
2024/03/11 08:13:51;;;;;;;2.87;2.53;;;8.80;99.90;;;;;;5052150;28;20537;-69
2024/03/11 08:16:17;;;;;;;3.47;1.93;;;8.80;99.90;;;;;;5052533;28;20209;-69
2024/03/11 08:18:43;;;;;;;2.30;1.70;;;8.80;99.90;;;;;;5051065;28;20235;-66
2024/03/11 08:21:11;;;;;;;3.00;1.87;;;9.00;99.90;;;;;;5052557;28;20250;-68
2024/03/11 08:23:42;;;;;;;1.60;1.20;;;9.10;99.90;;;;;;5052471;28;20173;-67
2024/03/11 08:26:08;;;;;;;2.13;1.37;;;9.10;99.90;;;;;;5052758;28;20811;-67
2024/03/11 08:28:38;;;;;;;2.50;1.47;;;9.10;99.90;;;;;;5052599;28;20441;-67
2024/03/11 08:31:09;;;;;;;2.27;1.30;;;9.10;99.90;;;;;;5052427;28;20167;-68
2024/03/11 08:33:37;;;;;;;1.60;1.50;;;9.10;99.90;;;;;;5052150;28;21006;-68
2024/03/11 08:36:04;;;;;;;2.00;1.60;;;9.10;99.90;;;;;;5051975;28;20477;-67
2024/03/11 08:38:33;;;;;;;3.73;2.27;;;9.10;99.90;;;;;;5047205;28;20425;-67
2024/03/11 08:40:59;;;;;;;3.90;1.77;;;9.20;99.90;;;;;;5051943;28;20426;-67
2024/03/11 08:43:26;;;;;;;1.67;1.17;;;9.40;99.90;;;;;;5052074;28;20504;-67
2024/03/11 08:45:51;;;;;;;4.17;1.50;;;9.30;99.90;;;;;;5052036;28;20394;-67
2024/03/11 08:48:17;;;;;;;2.50;2.17;;;9.20;99.90;;;;;;5052052;28;20424;-67
2024/03/11 08:50:43;;;;;;;3.20;1.60;;;9.20;99.90;;;;;;5052003;28;20194;-67
2024/03/11 08:53:08;;;;;;;1.73;1.37;;;9.10;99.90;;;;;;5051909;28;20312;-68
2024/03/11 08:55:34;;;;;;;3.17;1.33;;;9.00;99.90;;;;;;5051841;28;20537;-68
2024/03/11 08:58:01;;;;;;;2.40;1.73;;;9.10;99.90;;;;;;5051809;28;20780;-67
2024/03/11 09:00:30;;;;;;;2.37;1.70;;;9.00;99.90;;;;;;5045358;28;20425;-68
2024/03/11 09:02:56;;;;;;;2.30;1.57;;;9.00;99.90;;;;;;5051799;28;20418;-68
2024/03/11 09:05:22;;;;;;;2.13;1.60;;;8.90;99.90;;;;;;5049219;28;20776;-68
2024/03/11 09:07:50;;;;;;;2.57;1.73;;;8.80;99.90;;;;;;5051587;28;20194;-67
2024/03/11 09:10:17;;;;;;;3.93;2.20;;;8.80;99.90;;;;;;5051062;28;20544;-67
2024/03/11 09:12:46;;;;;;;2.80;1.63;;;8.90;99.90;;;;;;5051920;28;20908;-67
2024/03/11 09:15:15;;;;;;;3.10;1.60;;;8.90;99.90;;;;;;5053187;28;20394;-67
2024/03/11 09:17:44;;;;;;;6.03;2.30;;;8.80;99.90;;;;;;5058364;28;20811;-68
2024/03/11 09:20:17;;;;;;;2.90;1.63;;;8.80;99.90;;;;;;5058309;28;20446;-68
2024/03/11 09:22:51;;;;;;;3.10;1.90;;;8.80;99.90;;;;;;5058204;28;20484;-68
2024/03/11 09:25:22;;;;;;;3.30;2.47;;;8.80;99.90;;;;;;5058081;28;20397;-68
2024/03/11 09:27:49;;;;;;;3.10;2.27;;;8.80;99.90;;;;;;5054262;28;21011;-67
2024/03/11 09:30:17;;;;;;;3.53;2.33;;;8.80;99.90;;;;;;5057110;28;20453;-68
2024/03/11 09:32:51;;;;;;;2.80;2.03;;;8.90;99.90;;;;;;5050889;28;20413;-69
2024/03/11 09:35:18;;;;;;;5.20;2.07;;;9.00;99.90;;;;;;5043104;28;20436;-68
2024/03/11 09:37:52;;;;;;;3.03;1.90;;;9.00;99.90;;;;;;5050795;28;20436;-69
2024/03/11 09:40:23;;;;;;;2.07;1.87;;;9.10;99.90;;;;;;5057931;28;20419;-68
2024/03/11 09:43:00;;;;;;;4.20;2.57;;;9.00;99.90;;;;;;5052068;28;20421;-67
2024/03/11 09:45:34;;;;;;;3.30;2.03;;;9.00;99.90;;;;;;5050015;28;20408;-69
2024/03/11 09:48:04;;;;;;;2.00;1.77;;;9.00;99.90;;;;;;5058534;28;20954;-67
2024/03/11 09:50:32;;;;;;;2.60;2.03;;;9.00;99.90;;;;;;5057912;28;20490;-68
2024/03/11 09:53:18;;;;;;;3.57;2.70;;;9.00;99.90;;;;;;5057974;28;20425;-68
2024/03/11 09:55:44;;;;;;;4.20;2.20;;;9.00;99.90;;;;;;5057822;28;20500;-67
2024/03/11 09:58:13;;;;;;;4.13;2.30;;;9.00;99.90;;;;;;5056651;28;20490;-69
2024/03/11 10:00:50;;;;;;;2.90;2.50;;;9.00;99.90;;;;;;5056953;28;20449;-67
2024/03/11 10:03:20;;;;;;;2.37;1.57;;;9.00;99.90;;;;;;5058012;28;20799;-67
2024/03/11 10:05:45;;;;;;;2.13;1.40;;;9.00;99.90;;;;;;5057945;28;20409;-67
2024/03/11 10:08:11;;;;;;;2.50;2.10;;;9.00;99.90;;;;;;5057842;28;20429;-68
2024/03/11 10:10:39;;;;;;;2.70;1.93;;;9.10;99.90;;;;;;5056528;28;20218;-68
2024/03/11 10:13:05;;;;;;;2.33;1.20;;;9.00;99.90;;;;;;5057868;28;20194;-68
2024/03/11 10:15:32;;;;;;;2.80;1.53;;;9.00;99.90;;;;;;5057562;28;20467;-68
2024/03/11 10:18:14;;;;;;;3.93;1.20;;;9.00;99.90;;;;;;5057714;28;20428;-67
2024/03/11 10:20:43;;;;;;;1.40;1.30;;;9.00;99.90;;;;;;5058179;28;20586;-67
2024/03/11 10:23:09;;;;;;;1.20;1.03;;;9.00;99.90;;;;;;5057744;28;20399;-67
2024/03/11 10:25:35;;;;;;;2.13;1.30;;;8.90;99.90;;;;;;5057483;28;20488;-67
2024/03/11 10:28:04;;;;;;;1.37;0.80;;;8.90;99.90;;;;;;5053684;28;20825;-68
2024/03/11 10:30:31;;;;;;;1.20;1.00;;;8.80;99.90;;;;;;5054673;28;20273;-67
2024/03/11 10:33:01;;;;;;;2.07;1.47;;;8.80;99.90;;;;;;5054474;28;20401;-67
2024/03/11 10:35:27;;;;;;;1.13;0.90;;;8.80;99.90;;;;;;5054360;28;20407;-67
2024/03/11 10:38:13;;;;;;;1.23;1.10;;;8.80;99.90;;;;;;5053119;28;20787;-68
2024/03/11 10:40:41;;;;;;;0.80;0.70;;;8.80;99.90;;;;;;5054290;28;20454;-68
2024/03/11 10:43:25;;;;;;;2.07;1.13;;;8.80;99.90;;;;;;5054390;28;20759;-67
2024/03/11 10:45:50;;;;;;;1.90;1.73;;;8.80;99.90;;;;;;5054145;28;20397;-67
2024/03/11 10:48:16;;;;;;;1.77;1.37;;;8.80;99.90;;;;;;5054215;28;20567;-67
2024/03/11 10:50:42;;;;;;;6.20;1.60;;;8.80;99.90;;;;;;5053020;28;20281;-68
2024/03/11 10:53:26;;;;;;;3.10;1.40;;;8.80;99.90;;;;;;5054148;28;20178;-68
2024/03/11 10:55:55;;;;;;;1.00;0.90;;;8.80;99.90;;;;;;5054153;28;20439;-67
2024/03/11 10:58:25;;;;;;;1.53;1.03;;;8.90;99.90;;;;;;5053996;28;20432;-67
2024/03/11 11:00:53;;;;;;;1.53;1.07;;;8.90;99.90;;;;;;5054088;28;20401;-68
2024/03/11 11:03:22;;;;;;;1.90;1.50;;;9.00;99.90;;;;;;5055341;28;20787;-67
2024/03/11 11:06:00;;;;;;;2.53;1.00;;;9.00;99.90;;;;;;5053694;28;20433;-67
2024/03/11 11:08:30;;;;;;;1.83;1.40;;;9.00;99.90;;;;;;5053760;28;20432;-67
2024/03/11 11:11:01;;;;;;;1.57;1.20;;;9.00;99.90;;;;;;5053783;28;20479;-68
2024/03/11 11:13:29;;;;;;;2.07;1.40;;;9.10;99.90;;;;;;5053817;28;20928;-70
2024/03/11 11:16:00;;;;;;;1.30;1.20;;;9.20;99.90;;;;;;5053718;28;20402;-67
2024/03/11 11:18:27;;;;;;;2.17;1.50;;;9.20;99.90;;;;;;5053711;28;20422;-68
2024/03/11 11:20:54;;;;;;;1.10;0.90;;;9.30;99.90;;;;;;5053678;28;20401;-67
2024/03/11 11:23:27;;;;;;;1.23;1.13;;;9.30;99.90;;;;;;5053555;28;20780;-68
2024/03/11 11:25:57;;;;;;;1.47;1.10;;;9.20;99.90;;;;;;5053612;28;20408;-67
2024/03/11 11:28:29;;;;;;;1.33;1.13;;;9.20;99.90;;;;;;5053345;28;20432;-67
2024/03/11 11:31:14;;;;;;;1.10;0.97;;;9.20;99.90;;;;;;5053450;28;20444;-67
2024/03/11 11:34:01;;;;;;;2.73;1.10;;;9.10;99.90;;;;;;5053111;28;20444;-68
2024/03/11 11:36:36;;;;;;;1.07;0.70;;;9.10;99.90;;;;;;5053862;28;20479;-67
2024/03/11 11:39:13;;;;;;;1.47;1.00;;;9.20;99.90;;;;;;5052837;28;20432;-68
2024/03/11 11:41:42;;;;;;;1.07;0.97;;;9.10;99.90;;;;;;5053255;28;20397;-68
2024/03/11 11:44:08;;;;;;;2.20;1.57;;;9.10;99.90;;;;;;5041277;28;21002;-69
2024/03/11 11:46:41;;;;;;;1.33;1.20;;;9.20;99.90;;;;;;5041197;28;20496;-67
2024/03/11 11:49:20;;;;;;;2.50;1.50;;;9.30;99.90;;;;;;5051245;28;20468;-68
2024/03/11 11:51:46;;;;;;;1.40;1.20;;;9.50;99.90;;;;;;5052880;28;20409;-68
2024/03/11 11:54:19;;;;;;;1.60;1.50;;;9.60;99.90;;;;;;5052689;28;20402;-67
2024/03/11 11:56:45;;;;;;;2.70;1.40;;;9.60;99.90;;;;;;5051761;28;20423;-67
2024/03/11 11:59:12;;;;;;;1.60;1.40;;;9.60;99.90;;;;;;5052868;28;20417;-67
2024/03/11 12:01:51;;;;;;;1.63;1.53;;;9.80;99.90;;;;;;5052903;28;20402;-68
2024/03/11 12:04:18;;;;;;;2.37;1.50;;;9.80;99.90;;;;;;5052605;28;20512;-69
2024/03/11 12:06:45;;;;;;;4.20;1.40;;;9.90;99.90;;;;;;5052815;28;20413;-68
2024/03/11 12:09:15;;;;;;;1.50;1.33;;;9.90;99.90;;;;;;5052615;28;20461;-68
2024/03/11 12:11:45;;;;;;;1.57;1.23;;;9.90;99.90;;;;;;5048472;28;20418;-67
2024/03/11 12:14:11;;;;;;;1.70;1.60;;;9.90;99.90;;;;;;5044792;28;20425;-67
2024/03/11 12:16:38;;;;;;;1.53;0.90;;;9.90;99.90;;;;;;5052382;28;20406;-67
2024/03/11 12:19:09;;;;;;;1.37;1.10;;;9.90;99.90;;;;;;5049210;28;20433;-67
2024/03/11 12:21:42;;;;;;;1.27;1.00;;;10.00;99.90;;;;;;5041455;28;20525;-66
2024/03/11 12:24:12;;;;;;;2.47;1.37;;;10.00;99.90;;;;;;5036682;28;20892;-67
2024/03/11 12:26:41;;;;;;;1.93;1.07;;;9.90;99.90;;;;;;5050806;28;20428;-66
2024/03/11 12:29:14;;;;;;;1.50;1.40;;;9.90;99.90;;;;;;5051949;28;20496;-67
2024/03/11 12:31:41;;;;;;;3.63;1.00;;;10.00;99.90;;;;;;5052314;28;20475;-67
2024/03/11 12:34:09;;;;;;;1.27;1.17;;;10.00;99.90;;;;;;5059467;28;20400;-68
2024/03/11 12:36:46;;;;;;;1.20;0.90;;;10.10;99.90;;;;;;5071887;28;20453;-66
2024/03/11 12:39:25;;;;;;;1.50;1.20;;;10.20;99.90;;;;;;5071641;28;20450;-67
2024/03/11 12:41:53;;;;;;;1.93;1.00;;;10.10;99.90;;;;;;5072205;28;20529;-68
2024/03/11 12:44:19;;;;;;;0.90;0.80;;;10.10;99.90;;;;;;5071489;28;20434;-67
2024/03/11 12:46:46;;;;;;;1.20;0.90;;;10.10;99.90;;;;;;5072132;28;20400;-68